Rechercher aéroport 
image banner adimage banner adimage banner ad
image banner ad

KONT - Ontario Intl

Situé à Ontario, United States

ICAO - ONT, IATA - ONT

Données fournies par Airmate  

Information générale

Coordonnées: N34°3'22" W117°36'4"
Élévation : 944 feet MSL.
Variation magnétique : 12° East
Voir autres Aéroports à California

Données opérationnelles

Special qualification required
Heure actuelle UTC:
Heure actuelle locale:
Météo
METAR: KONT 300053Z 25014KT 10SM FEW120 BKN250 34/08 A2984 RMK AO2 SLP084 T03390083
TAF: KONT 292325Z 3000/3106 26012G20KT P6SM FEW120 SCT250 FM300400 25006KT P6SM FEW250 FM302000 26012G20KT P6SM SCT200 FM310400 25006KT P6SM SCT200
Voir NOTAMs / SUP AIP / TFR affectant cet aéroport [VIEW]
Fréquences de communication: [VIEW]

Pistes:

Identifiant RWYQFULongueur (ft)Largeur (ft)SurfaceLDA (ft)
08R90°10200150CONC10200
26L270°10200150CONC10200
08L90°12197150CONC11200
26R270°12197150CONC12197

Coordonnées de l'aéroport

Adresse: Ontario United States

Vue satellite de KONT